Time;durP1;ratioP1;P1;durP2;ratioP2;P2;SDS_P1;SDS_P2;PMS_P1;PMS_P2;Temp;Humidity;BMP_temperature;BMP_pressure;BME280_temperature;BME280_humidity;BME280_pressure;Samples;Min_cycle;Max_cycle;Signal;HPM_P1;HPM_P2
2020/12/25 00:00:19;;;;;;;2.78;2.10;;;4.20;99.90;;;;;;4941629;29;20225;-61
2020/12/25 00:02:46;;;;;;;2.30;1.85;;;4.20;99.90;;;;;;4935572;29;20638;-61
2020/12/25 00:05:13;;;;;;;4.55;2.90;;;4.30;99.90;;;;;;4935180;29;20700;-61
2020/12/25 00:07:42;;;;;;;2.80;2.03;;;4.20;99.90;;;;;;4935401;29;20172;-60
2020/12/25 00:10:09;;;;;;;2.47;1.60;;;4.20;99.90;;;;;;4934518;29;20213;-62
2020/12/25 00:12:36;;;;;;;3.40;2.40;;;4.20;99.90;;;;;;4935642;29;20192;-61
2020/12/25 00:15:03;;;;;;;1.73;1.63;;;4.20;99.90;;;;;;4935504;29;20185;-62
2020/12/25 00:17:30;;;;;;;3.22;2.92;;;4.10;99.90;;;;;;4935275;29;20208;-61
2020/12/25 00:19:57;;;;;;;1.80;1.60;;;4.20;99.90;;;;;;4934677;29;20209;-60
2020/12/25 00:22:24;;;;;;;3.90;2.60;;;4.20;99.90;;;;;;4953615;29;20544;-63
2020/12/25 00:24:52;;;;;;;4.30;3.90;;;4.10;99.90;;;;;;4937233;29;20255;-60
2020/12/25 00:27:19;;;;;;;5.07;2.75;;;4.10;99.90;;;;;;4954274;29;20614;-61
2020/12/25 00:29:46;;;;;;;10.52;2.25;;;4.10;99.90;;;;;;4954776;29;20223;-61
2020/12/25 00:32:14;;;;;;;3.35;2.55;;;4.20;99.90;;;;;;4955613;29;20609;-62
2020/12/25 00:34:41;;;;;;;6.43;3.42;;;4.20;99.90;;;;;;4954721;29;20724;-63
2020/12/25 00:37:08;;;;;;;1.42;1.30;;;4.20;99.90;;;;;;4955527;29;20669;-60
2020/12/25 00:39:39;;;;;;;8.18;2.80;;;4.20;99.90;;;;;;4955625;29;20294;-60
2020/12/25 00:42:07;;;;;;;2.40;1.65;;;4.20;99.90;;;;;;4955670;29;20190;-61
2020/12/25 00:44:34;;;;;;;3.13;2.00;;;4.20;99.90;;;;;;4955238;29;20693;-61
2020/12/25 00:47:01;;;;;;;3.20;2.63;;;4.20;99.90;;;;;;4954332;29;20549;-62
2020/12/25 00:49:28;;;;;;;2.67;2.08;;;4.20;99.90;;;;;;4953154;29;20212;-60
2020/12/25 00:51:56;;;;;;;4.80;2.70;;;4.10;99.90;;;;;;4937025;29;20255;-62
2020/12/25 00:54:23;;;;;;;2.20;2.00;;;4.20;99.90;;;;;;4937319;29;20634;-61
2020/12/25 00:57:04;;;;;;;1.95;1.60;;;4.20;99.90;;;;;;4955025;29;20192;-60
2020/12/25 00:59:50;;;;;;;2.28;1.75;;;4.20;99.90;;;;;;4938266;29;20274;-62
2020/12/25 01:02:17;;;;;;;2.90;1.58;;;4.20;99.90;;;;;;4955652;29;20185;-61
2020/12/25 01:04:44;;;;;;;2.95;1.85;;;4.20;99.90;;;;;;4955295;29;20180;-62
2020/12/25 01:07:11;;;;;;;2.25;1.20;;;4.20;99.90;;;;;;4952883;29;20219;-60
2020/12/25 01:09:39;;;;;;;1.42;1.30;;;4.20;99.90;;;;;;4954008;29;20220;-60
2020/12/25 01:12:06;;;;;;;2.50;2.30;;;4.20;99.90;;;;;;4934542;29;20209;-61
2020/12/25 01:14:33;;;;;;;3.85;2.45;;;4.20;99.90;;;;;;4917235;29;20193;-61
2020/12/25 01:17:01;;;;;;;3.42;2.15;;;4.20;99.90;;;;;;4934741;29;20181;-60
2020/12/25 01:19:28;;;;;;;2.00;1.80;;;4.20;99.90;;;;;;4934590;29;20216;-63
2020/12/25 01:21:55;;;;;;;2.83;1.90;;;4.20;99.90;;;;;;4934682;29;20185;-61
2020/12/25 01:24:25;;;;;;;1.48;1.38;;;4.20;99.90;;;;;;4935755;29;20212;-62
2020/12/25 01:26:53;;;;;;;4.45;3.08;;;4.20;99.90;;;;;;4935782;29;20185;-62
2020/12/25 01:29:20;;;;;;;8.55;4.75;;;4.10;99.90;;;;;;4933436;29;20213;-63
2020/12/25 01:31:47;;;;;;;2.13;1.92;;;4.10;99.90;;;;;;4937740;29;20200;-61
2020/12/25 01:34:32;;;;;;;4.20;1.92;;;4.20;99.90;;;;;;4921703;29;20193;-61
2020/12/25 01:36:59;;;;;;;6.40;1.65;;;4.10;99.90;;;;;;4938278;29;20263;-59
2020/12/25 01:39:26;;;;;;;2.00;1.35;;;4.10;99.90;;;;;;4938155;29;20223;-62
2020/12/25 01:41:53;;;;;;;1.55;1.20;;;4.10;99.90;;;;;;4938515;29;20257;-61
2020/12/25 01:44:21;;;;;;;1.80;1.38;;;4.10;99.90;;;;;;4938350;29;20527;-61
2020/12/25 01:46:48;;;;;;;1.42;1.15;;;4.10;99.90;;;;;;4937922;29;20193;-60
2020/12/25 01:49:15;;;;;;;2.75;1.67;;;4.10;99.90;;;;;;4920922;29;20220;-61
2020/12/25 01:51:43;;;;;;;1.05;0.93;;;4.00;99.90;;;;;;4937930;29;20271;-59
2020/12/25 01:54:11;;;;;;;1.40;0.90;;;4.00;99.90;;;;;;4937739;29;20189;-61
2020/12/25 01:56:40;;;;;;;1.88;1.40;;;4.00;99.90;;;;;;4923833;29;20239;-61
2020/12/25 01:59:08;;;;;;;1.50;1.40;;;4.00;99.90;;;;;;4939672;29;20227;-63
2020/12/25 02:01:35;;;;;;;2.35;1.08;;;4.00;99.90;;;;;;4955688;29;20211;-61
2020/12/25 02:04:03;;;;;;;2.13;1.05;;;4.00;99.90;;;;;;4939568;29;20196;-62
2020/12/25 02:06:37;;;;;;;1.30;1.20;;;3.90;99.90;;;;;;4957293;29;20215;-61
2020/12/25 02:09:07;;;;;;;1.08;0.85;;;3.90;99.90;;;;;;4957526;29;20692;-61
2020/12/25 02:11:37;;;;;;;3.90;1.38;;;3.90;99.90;;;;;;4957169;29;20206;-61
2020/12/25 02:14:04;;;;;;;2.10;1.50;;;3.80;99.90;;;;;;4957337;29;20188;-59
2020/12/25 02:16:31;;;;;;;2.08;1.27;;;3.80;99.90;;;;;;4956591;29;20593;-57
2020/12/25 02:18:58;;;;;;;2.20;1.27;;;3.80;99.90;;;;;;4955982;29;20211;-60
2020/12/25 02:21:26;;;;;;;0.90;0.70;;;3.80;99.90;;;;;;4957208;29;20182;-58
2020/12/25 02:23:54;;;;;;;0.80;0.60;;;3.70;99.90;;;;;;4958171;29;20251;-55
2020/12/25 02:26:21;;;;;;;0.90;0.70;;;3.70;99.90;;;;;;4957548;29;20262;-63
2020/12/25 02:28:48;;;;;;;2.97;0.98;;;3.70;99.90;;;;;;4957783;29;20176;-59
2020/12/25 02:35:03;;;;;;;0.90;0.50;;;3.70;99.90;;;;;;4955797;29;20224;-59
2020/12/25 02:37:31;;;;;;;1.48;0.73;;;3.70;99.90;;;;;;4955875;29;20188;-63
2020/12/25 02:39:58;;;;;;;0.70;0.50;;;3.60;99.90;;;;;;4955723;29;20212;-61
2020/12/25 02:42:26;;;;;;;1.33;0.80;;;3.60;99.90;;;;;;4955290;28;20204;-62
2020/12/25 02:44:53;;;;;;;1.27;0.60;;;3.60;99.90;;;;;;4955620;29;20192;-60
2020/12/25 02:47:20;;;;;;;1.27;0.93;;;3.50;99.90;;;;;;4955682;29;20207;-61
2020/12/25 02:49:56;;;;;;;0.90;0.75;;;3.50;99.90;;;;;;4955479;29;20215;-61
2020/12/25 02:52:24;;;;;;;1.30;0.70;;;3.50;99.90;;;;;;4955067;29;20556;-62
2020/12/25 02:54:52;;;;;;;6.68;1.23;;;3.50;99.90;;;;;;4954964;29;20180;-60
2020/12/25 02:57:19;;;;;;;1.02;0.88;;;3.50;99.90;;;;;;4955173;29;20300;-61
2020/12/25 02:59:46;;;;;;;2.13;1.20;;;3.50;99.90;;;;;;4955259;29;20227;-61
2020/12/25 03:02:15;;;;;;;2.88;0.60;;;3.50;99.90;;;;;;4955086;29;20188;-61
2020/12/25 03:04:42;;;;;;;0.80;0.70;;;3.50;99.90;;;;;;4955146;29;20185;-61
2020/12/25 03:07:11;;;;;;;1.00;0.90;;;3.40;99.90;;;;;;4955390;29;20629;-61
2020/12/25 03:09:38;;;;;;;2.17;0.50;;;3.50;99.90;;;;;;4954852;29;20278;-61
2020/12/25 03:12:07;;;;;;;0.80;0.50;;;3.40;99.90;;;;;;4954536;29;20526;-62
2020/12/25 03:14:34;;;;;;;0.98;0.85;;;3.40;99.90;;;;;;4954805;29;20195;-61
2020/12/25 03:17:01;;;;;;;0.95;0.60;;;3.40;99.90;;;;;;4954763;29;20666;-59
2020/12/25 03:19:28;;;;;;;0.80;0.50;;;3.40;99.90;;;;;;4954448;29;20688;-61
2020/12/25 03:21:55;;;;;;;1.65;1.02;;;3.40;99.90;;;;;;4954458;29;20200;-61
2020/12/25 03:24:22;;;;;;;1.10;0.85;;;3.40;99.90;;;;;;4954999;29;20180;-60
2020/12/25 03:26:49;;;;;;;0.80;0.50;;;3.40;99.90;;;;;;4937117;29;20188;-60
2020/12/25 03:29:17;;;;;;;1.90;1.20;;;3.40;99.90;;;;;;4954428;29;20724;-60
2020/12/25 03:31:44;;;;;;;0.70;0.50;;;3.40;99.90;;;;;;4954456;29;20239;-62
2020/12/25 03:34:12;;;;;;;1.60;0.70;;;3.30;99.90;;;;;;4954283;29;20207;-61
2020/12/25 03:36:39;;;;;;;3.15;0.95;;;3.30;99.90;;;;;;4954282;29;20188;-62
2020/12/25 03:39:06;;;;;;;1.30;1.20;;;3.30;99.90;;;;;;4954214;29;20218;-61
2020/12/25 03:41:33;;;;;;;1.58;0.77;;;3.30;99.90;;;;;;4952484;29;20203;-60
2020/12/25 03:44:01;;;;;;;1.60;0.80;;;3.30;99.90;;;;;;4954165;29;20189;-61
2020/12/25 03:46:34;;;;;;;0.90;0.77;;;3.30;99.90;;;;;;4954054;29;20180;-63
2020/12/25 03:49:01;;;;;;;0.80;0.60;;;3.30;99.90;;;;;;4954260;29;20204;-60
2020/12/25 03:51:29;;;;;;;1.05;0.95;;;3.40;99.90;;;;;;4954699;29;20192;-62
2020/12/25 03:53:56;;;;;;;0.77;0.57;;;3.40;99.90;;;;;;4954888;28;20185;-59
2020/12/25 03:56:23;;;;;;;10.77;0.90;;;3.40;99.90;;;;;;4954854;29;20192;-63
2020/12/25 03:58:50;;;;;;;0.95;0.60;;;3.40;99.90;;;;;;4954981;29;20208;-61
2020/12/25 04:01:17;;;;;;;1.00;0.80;;;3.40;99.90;;;;;;4955029;29;20614;-61
2020/12/25 04:03:45;;;;;;;0.85;0.73;;;3.40;99.90;;;;;;4955173;29;20227;-61
2020/12/25 04:06:13;;;;;;;1.42;0.95;;;3.40;99.90;;;;;;4937921;29;20266;-60
2020/12/25 04:08:40;;;;;;;0.80;0.70;;;3.40;99.90;;;;;;4953634;29;20199;-62
2020/12/25 04:11:08;;;;;;;0.80;0.50;;;3.40;99.90;;;;;;4954687;29;20270;-57
2020/12/25 04:13:35;;;;;;;0.95;0.70;;;3.40;99.90;;;;;;4954874;29;20183;-59
2020/12/25 04:16:04;;;;;;;0.80;0.50;;;3.40;99.90;;;;;;4954774;29;20641;-61
2020/12/25 04:18:31;;;;;;;0.70;0.50;;;3.40;99.90;;;;;;4954751;29;20216;-58
2020/12/25 04:20:59;;;;;;;1.00;0.73;;;3.40;99.90;;;;;;4954545;29;20216;-60
2020/12/25 04:23:28;;;;;;;2.17;0.73;;;3.40;99.90;;;;;;4954994;29;20489;-63
2020/12/25 04:25:55;;;;;;;1.05;0.60;;;3.30;99.90;;;;;;4936831;29;20612;-60
2020/12/25 04:28:22;;;;;;;1.33;0.82;;;3.30;99.90;;;;;;4930483;29;20285;-60
2020/12/25 04:30:50;;;;;;;0.88;0.77;;;3.30;99.90;;;;;;4916223;29;20256;-61
2020/12/25 04:33:17;;;;;;;0.80;0.60;;;3.40;99.90;;;;;;4915942;29;20268;-62
2020/12/25 04:35:44;;;;;;;0.82;0.65;;;3.40;99.90;;;;;;4916365;29;20635;-61
2020/12/25 04:38:13;;;;;;;2.28;1.58;;;3.40;99.90;;;;;;4917179;29;20210;-60
2020/12/25 04:40:43;;;;;;;1.17;0.80;;;3.40;99.90;;;;;;4916866;29;20213;-56
2020/12/25 04:43:11;;;;;;;0.80;0.60;;;3.40;99.90;;;;;;4918480;29;20182;-60
2020/12/25 04:45:38;;;;;;;1.35;0.73;;;3.30;99.90;;;;;;4916557;29;20185;-59
2020/12/25 04:48:06;;;;;;;1.35;0.90;;;3.20;99.90;;;;;;4916573;29;20718;-60
2020/12/25 04:50:34;;;;;;;1.20;0.85;;;3.20;99.90;;;;;;4916069;29;20304;-60
2020/12/25 04:53:01;;;;;;;1.30;0.80;;;3.10;99.90;;;;;;4916238;29;20185;-62
2020/12/25 04:55:29;;;;;;;1.40;1.27;;;3.00;99.90;;;;;;4916425;29;20203;-59
2020/12/25 04:57:57;;;;;;;1.40;0.70;;;3.00;99.90;;;;;;4916468;29;20181;-61
2020/12/25 05:00:25;;;;;;;0.95;0.70;;;3.00;99.90;;;;;;4916408;29;20725;-59
2020/12/25 05:02:52;;;;;;;4.25;2.00;;;3.00;99.90;;;;;;4916427;29;20182;-59
2020/12/25 05:05:26;;;;;;;1.63;1.08;;;3.00;99.90;;;;;;4916502;29;20229;-59
2020/12/25 05:07:53;;;;;;;1.10;0.70;;;3.00;99.90;;;;;;4920432;29;20197;-57
2020/12/25 05:10:20;;;;;;;1.00;0.70;;;3.00;99.90;;;;;;4919763;29;20664;-58
2020/12/25 05:12:48;;;;;;;0.90;0.60;;;3.00;99.90;;;;;;4920022;29;20193;-61
2020/12/25 05:15:16;;;;;;;0.73;0.55;;;3.00;99.90;;;;;;4920075;29;20241;-59
2020/12/25 05:17:44;;;;;;;2.25;0.85;;;3.10;99.90;;;;;;4920712;29;20671;-60
2020/12/25 05:20:12;;;;;;;1.52;0.80;;;3.10;99.90;;;;;;4920155;29;20228;-61
2020/12/25 05:22:39;;;;;;;2.42;1.25;;;3.10;99.90;;;;;;4920556;29;20177;-59
2020/12/25 05:25:08;;;;;;;0.80;0.50;;;3.10;99.90;;;;;;4923059;29;20547;-61
2020/12/25 05:27:35;;;;;;;0.80;0.63;;;3.10;99.90;;;;;;4929070;29;20193;-61
2020/12/25 05:30:05;;;;;;;1.42;0.80;;;3.20;99.90;;;;;;4928527;29;20216;-61
2020/12/25 05:32:34;;;;;;;0.80;0.60;;;3.20;99.90;;;;;;4928226;29;20185;-60
2020/12/25 05:35:01;;;;;;;0.70;0.50;;;3.20;99.90;;;;;;4930859;29;20206;-61
2020/12/25 05:37:35;;;;;;;0.82;0.50;;;3.30;99.90;;;;;;4934010;29;20186;-59
2020/12/25 05:40:05;;;;;;;1.95;0.77;;;3.20;99.90;;;;;;4930202;29;20225;-61
2020/12/25 05:42:44;;;;;;;1.10;0.50;;;3.20;99.90;;;;;;4922970;29;20193;-60
2020/12/25 05:45:16;;;;;;;0.93;0.50;;;3.20;99.90;;;;;;4919830;29;20181;-59
2020/12/25 05:47:45;;;;;;;0.90;0.60;;;3.20;99.90;;;;;;4920432;29;20193;-61
2020/12/25 05:50:18;;;;;;;0.80;0.60;;;3.30;99.90;;;;;;4922304;29;20228;-59
2020/12/25 05:52:47;;;;;;;1.08;0.98;;;3.30;99.90;;;;;;4938401;29;20200;-61
2020/12/25 05:55:17;;;;;;;0.80;0.50;;;3.30;99.90;;;;;;4938361;29;20543;-59
2020/12/25 05:57:49;;;;;;;0.90;0.60;;;3.20;99.90;;;;;;4938271;29;20185;-60
2020/12/25 06:00:18;;;;;;;0.85;0.57;;;3.10;99.90;;;;;;4938067;29;20217;-61
2020/12/25 06:02:45;;;;;;;0.80;0.50;;;3.10;99.90;;;;;;4938247;29;20181;-60
2020/12/25 06:05:14;;;;;;;0.95;0.70;;;3.00;99.90;;;;;;4938381;29;20186;-60
2020/12/25 06:07:49;;;;;;;0.80;0.55;;;3.00;99.90;;;;;;4938159;29;20195;-60
2020/12/25 06:10:17;;;;;;;1.10;0.70;;;2.90;99.90;;;;;;4937901;29;20308;-60
2020/12/25 06:12:45;;;;;;;0.80;0.60;;;2.90;99.90;;;;;;4937862;29;20185;-61
2020/12/25 06:15:18;;;;;;;0.70;0.50;;;2.90;99.90;;;;;;4937987;29;20189;-61
2020/12/25 06:18:11;;;;;;;0.80;0.60;;;2.90;99.90;;;;;;4936711;29;20212;-61
2020/12/25 06:20:44;;;;;;;1.42;1.17;;;2.90;99.90;;;;;;4937412;29;20217;-59
2020/12/25 06:23:13;;;;;;;1.52;1.02;;;2.90;99.90;;;;;;4937717;29;20191;-57
2020/12/25 06:25:41;;;;;;;3.10;0.68;;;2.90;99.90;;;;;;4937685;29;20193;-62
2020/12/25 06:28:08;;;;;;;2.17;0.90;;;2.90;99.90;;;;;;4937688;29;20181;-56
2020/12/25 06:30:36;;;;;;;0.80;0.70;;;2.80;99.90;;;;;;4937416;29;20299;-60
2020/12/25 06:33:04;;;;;;;0.93;0.75;;;2.90;99.90;;;;;;4937651;29;20209;-57
2020/12/25 06:35:34;;;;;;;1.60;0.82;;;2.80;99.90;;;;;;4937791;29;20232;-61
2020/12/25 06:38:08;;;;;;;2.17;2.08;;;2.90;99.90;;;;;;4937529;29;20637;-58
2020/12/25 06:40:36;;;;;;;4.53;0.90;;;2.90;99.90;;;;;;4937752;29;20211;-60
2020/12/25 06:43:11;;;;;;;0.80;0.60;;;2.80;99.90;;;;;;4937527;29;20659;-57
2020/12/25 06:45:39;;;;;;;2.22;1.08;;;2.70;99.90;;;;;;4937464;29;20208;-61
2020/12/25 06:48:11;;;;;;;0.93;0.80;;;2.70;99.90;;;;;;4937508;29;20177;-60
2020/12/25 06:50:52;;;;;;;1.25;0.85;;;2.70;99.90;;;;;;4937299;29;20220;-59
2020/12/25 06:53:33;;;;;;;0.82;0.70;;;2.70;99.90;;;;;;4937385;29;20216;-62
2020/12/25 06:56:14;;;;;;;1.33;0.77;;;2.60;99.90;;;;;;4938430;29;20189;-61
2020/12/25 06:58:44;;;;;;;0.90;0.80;;;2.60;99.90;;;;;;4938928;29;20568;-61
2020/12/25 07:01:14;;;;;;;3.08;1.25;;;2.70;99.90;;;;;;4938881;29;20185;-61
2020/12/25 07:03:42;;;;;;;0.80;0.60;;;2.70;99.90;;;;;;4938357;29;20219;-59
2020/12/25 07:06:11;;;;;;;2.00;0.80;;;2.70;99.90;;;;;;4937470;29;20185;-62
2020/12/25 07:08:44;;;;;;;1.65;1.45;;;2.70;99.90;;;;;;4937195;29;20193;-62
2020/12/25 07:11:12;;;;;;;0.90;0.75;;;2.70;99.90;;;;;;5036045;23;20235;-50
2020/12/25 07:13:41;;;;;;;3.22;1.02;;;2.70;99.90;;;;;;4950312;29;20283;-52
2020/12/25 07:16:10;;;;;;;0.93;0.82;;;2.70;99.90;;;;;;4955208;29;20200;-56
2020/12/25 07:18:37;;;;;;;0.90;0.77;;;2.60;99.90;;;;;;4955092;29;20201;-56
2020/12/25 07:21:07;;;;;;;0.80;0.60;;;2.60;99.90;;;;;;4955027;29;20222;-54
2020/12/25 07:23:41;;;;;;;1.08;0.98;;;2.60;99.90;;;;;;4954871;29;20204;-54
2020/12/25 07:26:09;;;;;;;3.60;1.70;;;2.60;99.90;;;;;;4955109;29;20206;-54
2020/12/25 07:28:37;;;;;;;1.23;0.90;;;2.60;99.90;;;;;;4954790;28;20184;-52
2020/12/25 07:31:04;;;;;;;4.82;1.45;;;2.60;99.90;;;;;;4954806;29;20220;-55
2020/12/25 07:33:31;;;;;;;0.80;0.60;;;2.60;99.90;;;;;;4954676;29;20185;-55
2020/12/25 07:35:59;;;;;;;4.97;4.47;;;2.60;99.90;;;;;;4954755;29;20184;-53
2020/12/25 07:38:29;;;;;;;0.70;0.52;;;2.60;99.90;;;;;;4955037;29;20212;-52
2020/12/25 07:40:56;;;;;;;2.60;2.40;;;2.60;99.90;;;;;;4954622;29;20719;-52
2020/12/25 07:43:23;;;;;;;0.90;0.60;;;2.60;99.90;;;;;;4954683;29;20195;-57
2020/12/25 07:45:51;;;;;;;2.40;2.20;;;2.60;99.90;;;;;;4945207;29;20204;-56
2020/12/25 07:48:19;;;;;;;1.27;1.10;;;2.70;99.90;;;;;;4950546;29;20208;-54
2020/12/25 07:50:47;;;;;;;1.15;0.77;;;2.70;99.90;;;;;;4950517;29;20617;-54
2020/12/25 07:53:15;;;;;;;1.58;0.85;;;2.80;99.90;;;;;;4955099;29;20208;-54
2020/12/25 07:55:45;;;;;;;1.25;1.15;;;2.80;99.90;;;;;;4954724;29;20223;-56
2020/12/25 07:58:13;;;;;;;0.80;0.70;;;2.90;99.90;;;;;;4954639;29;20180;-56
2020/12/25 08:00:41;;;;;;;1.08;0.75;;;2.90;99.90;;;;;;4954156;29;20220;-53
2020/12/25 08:03:10;;;;;;;0.90;0.70;;;2.90;99.90;;;;;;4954256;29;20180;-54
2020/12/25 08:05:37;;;;;;;1.15;0.60;;;2.90;99.90;;;;;;4954587;29;20184;-57
2020/12/25 08:08:06;;;;;;;1.35;0.70;;;2.90;99.90;;;;;;4954551;29;20220;-55
2020/12/25 08:10:34;;;;;;;1.10;0.60;;;2.90;99.90;;;;;;4954090;29;20239;-54
2020/12/25 08:13:05;;;;;;;1.73;0.75;;;2.90;99.90;;;;;;4954794;29;20203;-54
2020/12/25 08:15:33;;;;;;;1.83;0.80;;;2.90;99.90;;;;;;4954396;29;20188;-54
2020/12/25 08:18:03;;;;;;;0.93;0.70;;;3.00;99.90;;;;;;4954304;29;20661;-53
2020/12/25 08:20:32;;;;;;;0.70;0.60;;;3.00;99.90;;;;;;4954105;29;20599;-54
2020/12/25 08:23:00;;;;;;;1.23;0.90;;;3.00;99.90;;;;;;4954367;29;20188;-57
2020/12/25 08:25:28;;;;;;;0.80;0.60;;;2.90;99.90;;;;;;4937180;29;20196;-54
2020/12/25 08:27:56;;;;;;;3.03;0.70;;;2.90;99.90;;;;;;4955134;29;20252;-52
2020/12/25 08:30:24;;;;;;;0.80;0.70;;;3.00;99.90;;;;;;4953987;29;20222;-52
2020/12/25 08:32:56;;;;;;;1.20;0.70;;;3.00;99.90;;;;;;4954096;29;20192;-55
2020/12/25 08:35:26;;;;;;;1.00;0.80;;;3.00;99.90;;;;;;4954005;29;20195;-60
2020/12/25 08:37:57;;;;;;;0.80;0.80;;;3.10;99.90;;;;;;4953816;29;20542;-58
2020/12/25 08:40:25;;;;;;;4.93;0.90;;;3.00;99.90;;;;;;4952947;28;20220;-57
2020/12/25 08:42:52;;;;;;;1.20;0.70;;;3.00;99.90;;;;;;4953768;29;20591;-59
2020/12/25 08:45:21;;;;;;;1.10;0.70;;;2.90;99.90;;;;;;4953814;29;20193;-58
2020/12/25 08:48:10;;;;;;;2.65;1.00;;;3.00;99.90;;;;;;4953574;29;20185;-59
2020/12/25 08:50:39;;;;;;;0.90;0.60;;;3.10;99.90;;;;;;4953636;29;20208;-55
2020/12/25 08:53:15;;;;;;;1.10;0.52;;;3.10;99.90;;;;;;4953514;29;20263;-57
2020/12/25 08:55:44;;;;;;;0.80;0.60;;;3.00;99.90;;;;;;4954363;29;20665;-53
2020/12/25 08:58:11;;;;;;;0.80;0.50;;;3.00;99.90;;;;;;4954471;29;20191;-57
2020/12/25 09:00:38;;;;;;;1.27;0.80;;;3.00;99.90;;;;;;4936957;29;20531;-58
2020/12/25 09:03:06;;;;;;;1.98;0.50;;;3.00;99.90;;;;;;4954049;29;20207;-59
2020/12/25 09:05:33;;;;;;;2.25;1.02;;;3.10;99.90;;;;;;4954188;29;20520;-58
2020/12/25 09:08:01;;;;;;;0.70;0.60;;;3.20;99.90;;;;;;4953964;29;20196;-58
2020/12/25 09:10:28;;;;;;;0.80;0.60;;;3.20;99.90;;;;;;4953139;29;20227;-60
2020/12/25 09:12:55;;;;;;;1.65;0.90;;;3.30;99.90;;;;;;4953556;29;20235;-58
2020/12/25 09:15:23;;;;;;;4.20;1.17;;;3.40;99.90;;;;;;4953408;29;20183;-58
2020/12/25 09:17:50;;;;;;;1.52;1.25;;;3.30;99.90;;;;;;4953286;29;20176;-56
2020/12/25 09:20:17;;;;;;;1.13;0.75;;;3.30;99.90;;;;;;4953292;29;20220;-56
2020/12/25 09:22:45;;;;;;;4.13;0.70;;;3.40;99.90;;;;;;4953453;29;20184;-58
2020/12/25 09:25:12;;;;;;;1.83;0.80;;;3.30;99.90;;;;;;4953384;29;20180;-53
2020/12/25 09:27:39;;;;;;;1.23;1.05;;;3.30;99.90;;;;;;4953595;29;20537;-55
2020/12/25 09:30:06;;;;;;;1.30;0.90;;;3.30;99.90;;;;;;4953468;29;20696;-55
2020/12/25 09:32:33;;;;;;;1.05;0.70;;;3.20;99.90;;;;;;4953641;29;20192;-60
2020/12/25 09:35:00;;;;;;;0.80;0.52;;;3.20;99.90;;;;;;4953716;29;20193;-59
2020/12/25 09:37:27;;;;;;;1.02;0.80;;;3.20;99.90;;;;;;4953246;29;20190;-53
2020/12/25 09:39:55;;;;;;;1.05;0.70;;;3.20;99.90;;;;;;4952964;29;20222;-59
2020/12/25 09:42:22;;;;;;;1.00;0.80;;;3.30;99.90;;;;;;4953538;29;20192;-58
2020/12/25 09:44:49;;;;;;;0.93;0.80;;;3.40;99.90;;;;;;4953598;29;20550;-55
2020/12/25 09:47:18;;;;;;;1.73;1.05;;;3.40;99.90;;;;;;4953857;29;20193;-57
2020/12/25 09:49:48;;;;;;;0.80;0.55;;;3.50;99.90;;;;;;4953452;29;20545;-54
2020/12/25 09:52:15;;;;;;;2.05;1.08;;;3.50;99.90;;;;;;4955202;28;20559;-56
2020/12/25 09:54:42;;;;;;;1.27;0.93;;;3.50;99.90;;;;;;4957159;29;20199;-60
2020/12/25 09:57:10;;;;;;;1.00;0.63;;;3.60;99.90;;;;;;4957131;29;20669;-55
2020/12/25 09:59:37;;;;;;;0.90;0.70;;;3.50;99.90;;;;;;4956865;29;20212;-53
2020/12/25 10:02:04;;;;;;;1.10;0.70;;;3.50;99.90;;;;;;4950880;29;20215;-59
2020/12/25 10:04:34;;;;;;;1.17;0.70;;;3.60;99.90;;;;;;4937747;29;20208;-55
2020/12/25 10:07:01;;;;;;;1.65;0.80;;;3.70;99.90;;;;;;4937945;29;20185;-56
2020/12/25 10:09:28;;;;;;;1.38;0.70;;;3.60;99.90;;;;;;4937762;29;20740;-53
2020/12/25 10:11:55;;;;;;;2.30;1.52;;;3.60;99.90;;;;;;4937826;29;20681;-57
2020/12/25 10:14:23;;;;;;;1.10;0.77;;;3.70;99.90;;;;;;4937806;29;20215;-56
2020/12/25 10:16:50;;;;;;;1.10;0.80;;;3.70;99.90;;;;;;4937610;29;20211;-56
2020/12/25 10:19:17;;;;;;;0.95;0.82;;;3.80;99.90;;;;;;4937382;29;20733;-61
2020/12/25 10:21:44;;;;;;;1.38;1.13;;;3.70;99.90;;;;;;4937617;29;20196;-62
2020/12/25 10:24:12;;;;;;;1.40;0.85;;;3.70;99.90;;;;;;4937429;29;20193;-56
2020/12/25 10:26:39;;;;;;;0.77;0.50;;;3.70;99.90;;;;;;4937236;29;20201;-58
2020/12/25 10:29:06;;;;;;;0.70;0.50;;;3.70;99.90;;;;;;4936749;29;20213;-57
2020/12/25 10:31:35;;;;;;;1.27;1.05;;;3.60;99.90;;;;;;4937093;29;20193;-55
2020/12/25 10:34:02;;;;;;;0.90;0.75;;;3.70;99.90;;;;;;4937218;29;20204;-58
2020/12/25 10:36:29;;;;;;;1.25;0.60;;;3.70;99.90;;;;;;4936693;29;20181;-58
2020/12/25 10:38:56;;;;;;;2.88;1.17;;;3.80;99.90;;;;;;4946042;29;20211;-56
2020/12/25 10:41:30;;;;;;;0.80;0.60;;;3.70;99.90;;;;;;4956170;29;20177;-58
2020/12/25 10:43:57;;;;;;;1.38;0.68;;;3.60;99.90;;;;;;4954753;29;20263;-58
2020/12/25 10:46:24;;;;;;;7.07;1.05;;;3.50;99.90;;;;;;4936822;29;20177;-64
2020/12/25 10:48:52;;;;;;;1.05;0.90;;;3.50;99.90;;;;;;4936689;29;20177;-58
2020/12/25 10:51:19;;;;;;;2.65;0.85;;;3.60;99.90;;;;;;4937174;29;20627;-58
2020/12/25 10:53:47;;;;;;;1.10;0.90;;;3.70;99.90;;;;;;4936777;29;20539;-54
2020/12/25 10:56:21;;;;;;;0.85;0.60;;;3.70;99.90;;;;;;4936544;29;20200;-58
2020/12/25 10:58:48;;;;;;;1.20;0.55;;;3.80;99.90;;;;;;4936478;29;20303;-58
2020/12/25 11:01:23;;;;;;;1.00;0.80;;;3.80;99.90;;;;;;4919481;29;20283;-55
2020/12/25 11:03:50;;;;;;;1.15;0.75;;;3.80;99.90;;;;;;4927343;29;20279;-57
2020/12/25 11:06:19;;;;;;;1.40;1.30;;;3.80;99.90;;;;;;4917138;29;20619;-57
2020/12/25 11:08:48;;;;;;;1.00;0.60;;;3.90;99.90;;;;;;4917395;29;20272;-54
2020/12/25 11:11:23;;;;;;;2.10;0.80;;;3.90;99.90;;;;;;4917051;29;20202;-54
2020/12/25 11:13:50;;;;;;;1.55;0.70;;;3.80;99.90;;;;;;4916380;29;20232;-61
2020/12/25 11:16:24;;;;;;;1.67;1.13;;;3.80;99.90;;;;;;4935918;29;20181;-60
2020/12/25 11:18:51;;;;;;;1.10;0.80;;;3.80;99.90;;;;;;4935675;29;20685;-56
2020/12/25 11:21:20;;;;;;;1.20;1.00;;;3.90;99.90;;;;;;4935558;29;20255;-60
2020/12/25 11:23:48;;;;;;;3.03;1.42;;;3.90;99.90;;;;;;4936135;29;20635;-59
2020/12/25 11:26:19;;;;;;;2.85;1.70;;;4.00;99.90;;;;;;4935486;29;20216;-57
2020/12/25 11:28:47;;;;;;;1.52;1.10;;;4.00;99.90;;;;;;4935350;29;20181;-60
2020/12/25 11:31:14;;;;;;;1.10;0.93;;;4.10;99.90;;;;;;4935145;29;20318;-56
2020/12/25 11:33:42;;;;;;;0.85;0.60;;;4.00;99.90;;;;;;4935282;29;20666;-58
2020/12/25 11:36:14;;;;;;;0.90;0.68;;;3.90;99.90;;;;;;4935314;29;20177;-54
2020/12/25 11:38:42;;;;;;;3.92;1.45;;;3.90;99.90;;;;;;4934525;29;20177;-55
2020/12/25 11:41:10;;;;;;;1.23;0.70;;;3.80;99.90;;;;;;4934939;29;20694;-56
2020/12/25 11:43:39;;;;;;;1.10;0.82;;;3.70;99.90;;;;;;4934966;29;20181;-57
2020/12/25 11:46:08;;;;;;;1.05;0.95;;;3.70;99.90;;;;;;4934744;29;20303;-61
2020/12/25 11:48:35;;;;;;;3.45;0.95;;;3.70;99.90;;;;;;4934962;29;20331;-60
2020/12/25 11:51:03;;;;;;;1.80;1.55;;;3.80;99.90;;;;;;4934580;29;20231;-59
2020/12/25 11:53:30;;;;;;;2.95;1.92;;;3.90;99.90;;;;;;4940293;29;20192;-56
2020/12/25 11:55:59;;;;;;;3.05;0.95;;;3.80;99.90;;;;;;4953546;29;20196;-57
2020/12/25 11:58:26;;;;;;;1.00;0.90;;;3.90;99.90;;;;;;4953592;29;20184;-54
2020/12/25 12:00:53;;;;;;;6.97;1.20;;;3.90;99.90;;;;;;4953168;29;20287;-57
2020/12/25 12:03:23;;;;;;;4.32;1.20;;;3.80;99.90;;;;;;4953427;29;20244;-52
2020/12/25 12:05:50;;;;;;;0.80;0.60;;;3.80;99.90;;;;;;4953245;29;20196;-58
2020/12/25 12:08:17;;;;;;;1.33;0.90;;;3.80;99.90;;;;;;4940628;29;20699;-60
2020/12/25 12:10:44;;;;;;;1.75;0.60;;;3.80;99.90;;;;;;4937816;29;20308;-55
2020/12/25 12:13:13;;;;;;;1.88;1.05;;;3.60;99.90;;;;;;4934504;29;20203;-55
2020/12/25 12:15:41;;;;;;;1.08;0.85;;;3.50;99.90;;;;;;4933573;29;20192;-57
2020/12/25 12:18:08;;;;;;;2.60;1.00;;;3.50;99.90;;;;;;4934345;29;20248;-58
2020/12/25 12:20:36;;;;;;;1.75;1.27;;;3.50;99.90;;;;;;4934549;29;20217;-58
2020/12/25 12:23:04;;;;;;;3.28;1.35;;;3.50;99.90;;;;;;4934458;29;20193;-60
2020/12/25 12:25:31;;;;;;;4.53;1.00;;;3.70;99.90;;;;;;4934272;29;20192;-55
2020/12/25 12:27:59;;;;;;;1.38;0.60;;;3.70;99.90;;;;;;4934459;29;20254;-55
2020/12/25 12:30:30;;;;;;;1.10;0.85;;;3.70;99.90;;;;;;4917259;29;20627;-59
2020/12/25 12:32:57;;;;;;;4.53;1.45;;;3.60;99.90;;;;;;4934655;29;20227;-57
2020/12/25 12:35:25;;;;;;;0.80;0.60;;;3.60;99.90;;;;;;4934248;29;20184;-56
2020/12/25 12:37:52;;;;;;;2.17;0.88;;;3.60;99.90;;;;;;4934444;29;20705;-58
2020/12/25 12:40:20;;;;;;;1.95;1.23;;;3.70;99.90;;;;;;4934130;29;20699;-57
2020/12/25 12:42:47;;;;;;;1.00;0.70;;;3.70;99.90;;;;;;4934508;29;20204;-59
2020/12/25 12:45:14;;;;;;;1.90;0.77;;;3.70;99.90;;;;;;4933883;29;20666;-54
2020/12/25 12:47:42;;;;;;;0.90;0.60;;;3.80;99.90;;;;;;4934106;29;20228;-59
2020/12/25 12:50:11;;;;;;;1.00;0.70;;;3.80;99.90;;;;;;4934351;29;20213;-55
2020/12/25 12:52:38;;;;;;;0.80;0.60;;;3.60;99.90;;;;;;4934669;29;20646;-59
2020/12/25 12:55:06;;;;;;;1.80;0.88;;;3.50;99.90;;;;;;4933810;29;20201;-53
2020/12/25 12:57:33;;;;;;;1.23;0.80;;;3.40;99.90;;;;;;4934308;29;20193;-59
2020/12/25 13:00:00;;;;;;;1.10;0.90;;;3.30;99.90;;;;;;4933896;29;20213;-56
2020/12/25 13:02:27;;;;;;;1.02;0.68;;;3.40;99.90;;;;;;4933949;29;20192;-59
2020/12/25 13:04:55;;;;;;;1.65;1.55;;;3.40;99.90;;;;;;4934283;29;20189;-55
2020/12/25 13:07:22;;;;;;;1.52;1.10;;;3.40;99.90;;;;;;4934268;29;20457;-56